sensor_id;sensor_type;location;lat;lon;timestamp;temperature;humidity
13892;DHT22;7016;48.172;8.058;2022-09-09T00:04:12;16.20;99.90
13892;DHT22;7016;48.172;8.058;2022-09-09T00:07:16;16.10;99.90
13892;DHT22;7016;48.172;8.058;2022-09-09T00:12:15;16.10;99.90
13892;DHT22;7016;48.172;8.058;2022-09-09T00:14:55;16.10;99.90
13892;DHT22;7016;48.172;8.058;2022-09-09T00:20:05;16.00;99.90
13892;DHT22;7016;48.172;8.058;2022-09-09T00:22:38;16.00;99.90
13892;DHT22;7016;48.172;8.058;2022-09-09T00:25:12;16.10;99.90
13892;DHT22;7016;48.172;8.058;2022-09-09T00:27:49;16.00;99.90
13892;DHT22;7016;48.172;8.058;2022-09-09T00:32:44;16.00;99.90
13892;DHT22;7016;48.172;8.058;2022-09-09T00:37:37;16.00;99.90
13892;DHT22;7016;48.172;8.058;2022-09-09T00:40:30;16.00;99.90
13892;DHT22;7016;48.172;8.058;2022-09-09T00:49:34;16.10;99.90
13892;DHT22;7016;48.172;8.058;2022-09-09T00:54:35;16.10;99.90
13892;DHT22;7016;48.172;8.058;2022-09-09T00:57:17;16.10;99.90
13892;DHT22;7016;48.172;8.058;2022-09-09T00:59:52;16.10;99.90
13892;DHT22;7016;48.172;8.058;2022-09-09T01:02:47;16.10;99.90
13892;DHT22;7016;48.172;8.058;2022-09-09T01:10:56;16.20;99.90
13892;DHT22;7016;48.172;8.058;2022-09-09T01:13:26;16.20;99.90
13892;DHT22;7016;48.172;8.058;2022-09-09T01:15:53;16.20;99.90
13892;DHT22;7016;48.172;8.058;2022-09-09T01:18:27;16.20;99.90
13892;DHT22;7016;48.172;8.058;2022-09-09T01:21:25;16.10;99.90
13892;DHT22;7016;48.172;8.058;2022-09-09T01:26:46;16.10;99.90
13892;DHT22;7016;48.172;8.058;2022-09-09T01:29:14;16.20;99.90
13892;DHT22;7016;48.172;8.058;2022-09-09T01:31:51;16.10;99.90
13892;DHT22;7016;48.172;8.058;2022-09-09T01:34:18;16.20;99.90
13892;DHT22;7016;48.172;8.058;2022-09-09T01:37:03;16.20;99.90
13892;DHT22;7016;48.172;8.058;2022-09-09T01:39:32;16.20;99.90
13892;DHT22;7016;48.172;8.058;2022-09-09T01:41:58;16.20;99.90
13892;DHT22;7016;48.172;8.058;2022-09-09T01:44:25;16.20;99.90
13892;DHT22;7016;48.172;8.058;2022-09-09T01:46:51;16.20;99.90
13892;DHT22;7016;48.172;8.058;2022-09-09T01:49:18;16.20;99.90
13892;DHT22;7016;48.172;8.058;2022-09-09T01:51:46;16.20;99.90
13892;DHT22;7016;48.172;8.058;2022-09-09T01:54:13;16.20;99.90
13892;DHT22;7016;48.172;8.058;2022-09-09T02:02:33;16.20;99.90
13892;DHT22;7016;48.172;8.058;2022-09-09T02:05:51;16.20;99.90
13892;DHT22;7016;48.172;8.058;2022-09-09T02:11:12;16.30;99.90
13892;DHT22;7016;48.172;8.058;2022-09-09T02:13:39;16.20;99.90
13892;DHT22;7016;48.172;8.058;2022-09-09T02:19:48;16.20;99.90
13892;DHT22;7016;48.172;8.058;2022-09-09T02:21:44;16.20;99.90
13892;DHT22;7016;48.172;8.058;2022-09-09T02:24:12;16.20;99.90
13892;DHT22;7016;48.172;8.058;2022-09-09T02:26:42;16.10;99.90
13892;DHT22;7016;48.172;8.058;2022-09-09T02:29:39;16.20;99.90
13892;DHT22;7016;48.172;8.058;2022-09-09T02:32:11;16.30;99.90
13892;DHT22;7016;48.172;8.058;2022-09-09T02:34:47;16.20;99.90
13892;DHT22;7016;48.172;8.058;2022-09-09T02:37:19;16.20;99.90
13892;DHT22;7016;48.172;8.058;2022-09-09T02:39:46;16.20;99.90
13892;DHT22;7016;48.172;8.058;2022-09-09T02:42:12;16.30;99.90
13892;DHT22;7016;48.172;8.058;2022-09-09T02:44:40;16.40;99.90
13892;DHT22;7016;48.172;8.058;2022-09-09T02:50:13;16.40;99.90
13892;DHT22;7016;48.172;8.058;2022-09-09T02:57:58;16.40;99.90
13892;DHT22;7016;48.172;8.058;2022-09-09T03:00:28;16.40;99.90
13892;DHT22;7016;48.172;8.058;2022-09-09T03:02:54;16.40;99.90
13892;DHT22;7016;48.172;8.058;2022-09-09T03:05:20;16.70;99.90
13892;DHT22;7016;48.172;8.058;2022-09-09T03:07:47;16.40;99.90
13892;DHT22;7016;48.172;8.058;2022-09-09T03:10:13;16.40;99.90
13892;DHT22;7016;48.172;8.058;2022-09-09T03:12:39;16.40;99.90
13892;DHT22;7016;48.172;8.058;2022-09-09T03:15:06;16.50;99.90
13892;DHT22;7016;48.172;8.058;2022-09-09T03:17:32;16.50;99.90
13892;DHT22;7016;48.172;8.058;2022-09-09T03:19:57;16.50;99.90
13892;DHT22;7016;48.172;8.058;2022-09-09T03:22:24;16.40;99.90
13892;DHT22;7016;48.172;8.058;2022-09-09T03:24:51;16.30;99.90
13892;DHT22;7016;48.172;8.058;2022-09-09T03:27:17;16.40;99.90
13892;DHT22;7016;48.172;8.058;2022-09-09T03:29:45;16.40;99.90
13892;DHT22;7016;48.172;8.058;2022-09-09T03:32:12;16.40;99.90
13892;DHT22;7016;48.172;8.058;2022-09-09T03:34:38;16.40;99.90
13892;DHT22;7016;48.172;8.058;2022-09-09T03:37:06;16.50;99.90
13892;DHT22;7016;48.172;8.058;2022-09-09T03:39:31;16.40;99.90
13892;DHT22;7016;48.172;8.058;2022-09-09T03:41:57;16.40;99.90
13892;DHT22;7016;48.172;8.058;2022-09-09T03:44:23;16.30;99.90
13892;DHT22;7016;48.172;8.058;2022-09-09T03:46:48;16.30;99.90
13892;DHT22;7016;48.172;8.058;2022-09-09T03:49:14;16.30;99.90
13892;DHT22;7016;48.172;8.058;2022-09-09T03:51:41;16.30;99.90
13892;DHT22;7016;48.172;8.058;2022-09-09T03:54:07;16.30;99.90
13892;DHT22;7016;48.172;8.058;2022-09-09T03:56:36;16.30;99.90
13892;DHT22;7016;48.172;8.058;2022-09-09T03:59:02;16.30;99.90
13892;DHT22;7016;48.172;8.058;2022-09-09T04:01:28;16.30;99.90
13892;DHT22;7016;48.172;8.058;2022-09-09T04:03:54;16.20;99.90
13892;DHT22;7016;48.172;8.058;2022-09-09T04:06:22;16.10;99.90
13892;DHT22;7016;48.172;8.058;2022-09-09T04:08:48;16.10;99.90
13892;DHT22;7016;48.172;8.058;2022-09-09T04:11:15;16.00;99.90
13892;DHT22;7016;48.172;8.058;2022-09-09T04:13:40;15.90;99.90
13892;DHT22;7016;48.172;8.058;2022-09-09T04:16:08;15.90;99.90
13892;DHT22;7016;48.172;8.058;2022-09-09T04:18:35;15.90;99.90
13892;DHT22;7016;48.172;8.058;2022-09-09T04:21:01;15.90;99.90
13892;DHT22;7016;48.172;8.058;2022-09-09T04:23:29;15.90;99.90
13892;DHT22;7016;48.172;8.058;2022-09-09T04:25:55;16.00;99.90
13892;DHT22;7016;48.172;8.058;2022-09-09T04:28:23;16.00;99.90
13892;DHT22;7016;48.172;8.058;2022-09-09T04:30:49;16.00;99.90
13892;DHT22;7016;48.172;8.058;2022-09-09T04:33:15;16.00;99.90
13892;DHT22;7016;48.172;8.058;2022-09-09T04:35:50;16.00;99.90
13892;DHT22;7016;48.172;8.058;2022-09-09T04:38:17;16.00;99.90
13892;DHT22;7016;48.172;8.058;2022-09-09T04:40:46;15.90;99.90
13892;DHT22;7016;48.172;8.058;2022-09-09T04:43:12;15.90;99.90
13892;DHT22;7016;48.172;8.058;2022-09-09T04:45:40;15.90;99.90
13892;DHT22;7016;48.172;8.058;2022-09-09T04:48:06;16.00;99.90
13892;DHT22;7016;48.172;8.058;2022-09-09T04:50:32;16.00;99.90
13892;DHT22;7016;48.172;8.058;2022-09-09T04:55:29;16.00;99.90
13892;DHT22;7016;48.172;8.058;2022-09-09T04:57:55;16.00;99.90
13892;DHT22;7016;48.172;8.058;2022-09-09T05:00:23;16.00;99.90
13892;DHT22;7016;48.172;8.058;2022-09-09T05:02:49;16.00;99.90
13892;DHT22;7016;48.172;8.058;2022-09-09T05:05:14;16.10;99.90
13892;DHT22;7016;48.172;8.058;2022-09-09T05:07:40;16.10;99.90
13892;DHT22;7016;48.172;8.058;2022-09-09T05:10:07;16.10;99.90
13892;DHT22;7016;48.172;8.058;2022-09-09T05:12:33;16.00;99.90
13892;DHT22;7016;48.172;8.058;2022-09-09T05:14:59;16.00;99.90
13892;DHT22;7016;48.172;8.058;2022-09-09T05:17:24;16.00;99.90
13892;DHT22;7016;48.172;8.058;2022-09-09T05:19:50;16.10;99.90
13892;DHT22;7016;48.172;8.058;2022-09-09T05:22:22;16.20;99.90
13892;DHT22;7016;48.172;8.058;2022-09-09T05:24:49;16.30;99.90
13892;DHT22;7016;48.172;8.058;2022-09-09T05:27:18;16.20;99.90
13892;DHT22;7016;48.172;8.058;2022-09-09T05:29:47;16.20;99.90
13892;DHT22;7016;48.172;8.058;2022-09-09T05:32:13;16.20;99.90
13892;DHT22;7016;48.172;8.058;2022-09-09T05:34:41;16.20;99.90
13892;DHT22;7016;48.172;8.058;2022-09-09T05:37:07;16.20;99.90
13892;DHT22;7016;48.172;8.058;2022-09-09T05:39:33;16.20;99.90
13892;DHT22;7016;48.172;8.058;2022-09-09T05:41:59;16.30;99.90
13892;DHT22;7016;48.172;8.058;2022-09-09T05:44:25;16.40;99.90
13892;DHT22;7016;48.172;8.058;2022-09-09T05:46:53;16.40;99.90
13892;DHT22;7016;48.172;8.058;2022-09-09T05:49:20;16.40;99.90
13892;DHT22;7016;48.172;8.058;2022-09-09T05:51:46;16.50;99.90
13892;DHT22;7016;48.172;8.058;2022-09-09T05:54:13;16.60;99.90
13892;DHT22;7016;48.172;8.058;2022-09-09T05:56:41;16.60;99.90
13892;DHT22;7016;48.172;8.058;2022-09-09T05:59:06;16.60;99.90
13892;DHT22;7016;48.172;8.058;2022-09-09T06:01:34;16.70;99.90
13892;DHT22;7016;48.172;8.058;2022-09-09T06:04:00;16.80;99.90
13892;DHT22;7016;48.172;8.058;2022-09-09T06:06:30;16.80;99.90
13892;DHT22;7016;48.172;8.058;2022-09-09T06:08:57;16.80;99.90
13892;DHT22;7016;48.172;8.058;2022-09-09T06:11:28;16.80;99.90
13892;DHT22;7016;48.172;8.058;2022-09-09T06:13:56;16.80;99.90
13892;DHT22;7016;48.172;8.058;2022-09-09T06:16:24;16.80;99.90
13892;DHT22;7016;48.172;8.058;2022-09-09T06:18:51;16.80;99.90
13892;DHT22;7016;48.172;8.058;2022-09-09T06:21:32;16.80;99.90
13892;DHT22;7016;48.172;8.058;2022-09-09T06:23:59;16.80;99.90
13892;DHT22;7016;48.172;8.058;2022-09-09T06:26:48;16.90;99.90
13892;DHT22;7016;48.172;8.058;2022-09-09T06:29:13;16.90;99.90
13892;DHT22;7016;48.172;8.058;2022-09-09T06:31:39;17.00;99.90
13892;DHT22;7016;48.172;8.058;2022-09-09T06:34:07;17.00;99.90
13892;DHT22;7016;48.172;8.058;2022-09-09T06:36:36;17.10;99.90
13892;DHT22;7016;48.172;8.058;2022-09-09T06:39:03;17.10;99.90
13892;DHT22;7016;48.172;8.058;2022-09-09T06:41:30;17.10;99.90
13892;DHT22;7016;48.172;8.058;2022-09-09T06:43:56;17.10;99.90
13892;DHT22;7016;48.172;8.058;2022-09-09T06:46:28;17.10;99.90
13892;DHT22;7016;48.172;8.058;2022-09-09T06:48:55;17.10;99.90
13892;DHT22;7016;48.172;8.058;2022-09-09T06:51:24;17.10;99.90
13892;DHT22;7016;48.172;8.058;2022-09-09T06:53:55;17.30;99.90
13892;DHT22;7016;48.172;8.058;2022-09-09T06:56:32;17.30;99.90
13892;DHT22;7016;48.172;8.058;2022-09-09T06:59:00;17.30;99.90
13892;DHT22;7016;48.172;8.058;2022-09-09T07:01:32;17.40;99.90
13892;DHT22;7016;48.172;8.058;2022-09-09T07:03:58;17.40;99.90
13892;DHT22;7016;48.172;8.058;2022-09-09T07:06:25;17.40;99.90
13892;DHT22;7016;48.172;8.058;2022-09-09T07:08:53;17.40;99.90
13892;DHT22;7016;48.172;8.058;2022-09-09T07:11:21;17.30;99.90
13892;DHT22;7016;48.172;8.058;2022-09-09T07:13:48;17.30;99.90
13892;DHT22;7016;48.172;8.058;2022-09-09T07:16:17;17.30;99.90
13892;DHT22;7016;48.172;8.058;2022-09-09T07:18:43;17.40;99.90
13892;DHT22;7016;48.172;8.058;2022-09-09T07:21:11;17.40;99.90
13892;DHT22;7016;48.172;8.058;2022-09-09T07:23:38;17.40;99.90
13892;DHT22;7016;48.172;8.058;2022-09-09T07:26:12;17.50;99.90
13892;DHT22;7016;48.172;8.058;2022-09-09T07:28:39;17.60;99.90
13892;DHT22;7016;48.172;8.058;2022-09-09T07:31:06;17.70;99.90
13892;DHT22;7016;48.172;8.058;2022-09-09T07:33:34;17.80;99.90
13892;DHT22;7016;48.172;8.058;2022-09-09T07:36:21;17.80;99.90
13892;DHT22;7016;48.172;8.058;2022-09-09T07:38:50;17.90;99.90
13892;DHT22;7016;48.172;8.058;2022-09-09T07:41:28;17.90;99.90
13892;DHT22;7016;48.172;8.058;2022-09-09T07:43:54;18.00;99.90
13892;DHT22;7016;48.172;8.058;2022-09-09T07:46:22;17.90;99.90
13892;DHT22;7016;48.172;8.058;2022-09-09T07:48:50;17.90;99.90
13892;DHT22;7016;48.172;8.058;2022-09-09T07:51:21;18.00;99.90
13892;DHT22;7016;48.172;8.058;2022-09-09T07:53:48;18.00;99.90
13892;DHT22;7016;48.172;8.058;2022-09-09T07:56:16;18.00;99.90
13892;DHT22;7016;48.172;8.058;2022-09-09T07:58:42;18.00;99.90
13892;DHT22;7016;48.172;8.058;2022-09-09T08:01:15;17.90;99.90
13892;DHT22;7016;48.172;8.058;2022-09-09T08:03:42;17.90;99.70
13892;DHT22;7016;48.172;8.058;2022-09-09T08:06:10;17.90;99.90
13892;DHT22;7016;48.172;8.058;2022-09-09T08:08:36;18.00;99.90
13892;DHT22;7016;48.172;8.058;2022-09-09T08:11:15;18.00;99.90
13892;DHT22;7016;48.172;8.058;2022-09-09T08:13:43;18.00;99.70
13892;DHT22;7016;48.172;8.058;2022-09-09T08:16:14;17.90;99.90
13892;DHT22;7016;48.172;8.058;2022-09-09T08:18:41;18.00;99.90
13892;DHT22;7016;48.172;8.058;2022-09-09T08:21:12;18.00;99.50
13892;DHT22;7016;48.172;8.058;2022-09-09T08:23:42;18.10;99.10
13892;DHT22;7016;48.172;8.058;2022-09-09T08:26:20;18.10;99.40
13892;DHT22;7016;48.172;8.058;2022-09-09T08:28:52;18.20;99.80
13892;DHT22;7016;48.172;8.058;2022-09-09T08:31:23;18.20;99.30
13892;DHT22;7016;48.172;8.058;2022-09-09T08:33:49;18.30;98.70
13892;DHT22;7016;48.172;8.058;2022-09-09T08:36:18;18.30;99.00
13892;DHT22;7016;48.172;8.058;2022-09-09T08:38:51;18.40;98.70
13892;DHT22;7016;48.172;8.058;2022-09-09T08:47:35;18.80;98.40
13892;DHT22;7016;48.172;8.058;2022-09-09T08:50:30;19.00;97.70
13892;DHT22;7016;48.172;8.058;2022-09-09T08:53:14;19.10;97.30
13892;DHT22;7016;48.172;8.058;2022-09-09T08:55:59;19.10;97.40
13892;DHT22;7016;48.172;8.058;2022-09-09T08:58:27;19.10;96.80
13892;DHT22;7016;48.172;8.058;2022-09-09T09:09:36;19.50;95.40
13892;DHT22;7016;48.172;8.058;2022-09-09T09:12:17;19.50;95.00
13892;DHT22;7016;48.172;8.058;2022-09-09T09:14:46;19.70;94.80
13892;DHT22;7016;48.172;8.058;2022-09-09T09:17:15;19.70;95.50
13892;DHT22;7016;48.172;8.058;2022-09-09T09:19:43;19.70;94.00
13892;DHT22;7016;48.172;8.058;2022-09-09T09:27:39;19.70;94.40
13892;DHT22;7016;48.172;8.058;2022-09-09T09:30:15;19.70;94.40
13892;DHT22;7016;48.172;8.058;2022-09-09T09:32:46;19.80;93.40
13892;DHT22;7016;48.172;8.058;2022-09-09T09:35:14;19.80;94.00
13892;DHT22;7016;48.172;8.058;2022-09-09T09:37:40;19.80;94.20
13892;DHT22;7016;48.172;8.058;2022-09-09T09:40:17;19.80;93.60
13892;DHT22;7016;48.172;8.058;2022-09-09T09:42:56;19.80;93.80
13892;DHT22;7016;48.172;8.058;2022-09-09T09:45:42;20.00;93.70
13892;DHT22;7016;48.172;8.058;2022-09-09T09:48:13;19.90;93.60
13892;DHT22;7016;48.172;8.058;2022-09-09T09:53:30;19.60;93.80
13892;DHT22;7016;48.172;8.058;2022-09-09T09:56:03;19.60;94.30
13892;DHT22;7016;48.172;8.058;2022-09-09T10:01:03;19.80;94.40
13892;DHT22;7016;48.172;8.058;2022-09-09T10:03:31;20.20;93.20
13892;DHT22;7016;48.172;8.058;2022-09-09T10:05:57;20.20;93.40
13892;DHT22;7016;48.172;8.058;2022-09-09T10:08:27;20.30;92.60
13892;DHT22;7016;48.172;8.058;2022-09-09T10:17:31;20.00;92.80
13892;DHT22;7016;48.172;8.058;2022-09-09T10:19:37;20.10;92.20
13892;DHT22;7016;48.172;8.058;2022-09-09T10:36:29;20.30;91.10
13892;DHT22;7016;48.172;8.058;2022-09-09T10:39:04;20.10;90.50
13892;DHT22;7016;48.172;8.058;2022-09-09T10:47:00;20.60;90.60
13892;DHT22;7016;48.172;8.058;2022-09-09T10:49:42;20.40;90.60
13892;DHT22;7016;48.172;8.058;2022-09-09T10:57:37;19.90;91.80
13892;DHT22;7016;48.172;8.058;2022-09-09T11:00:06;19.80;94.70
13892;DHT22;7016;48.172;8.058;2022-09-09T11:02:40;19.60;95.90
13892;DHT22;7016;48.172;8.058;2022-09-09T11:05:24;19.50;96.30
13892;DHT22;7016;48.172;8.058;2022-09-09T11:08:00;19.50;97.10
13892;DHT22;7016;48.172;8.058;2022-09-09T11:13:23;19.30;98.80
13892;DHT22;7016;48.172;8.058;2022-09-09T11:16:25;19.30;98.80
13892;DHT22;7016;48.172;8.058;2022-09-09T11:19:05;19.30;99.90
13892;DHT22;7016;48.172;8.058;2022-09-09T11:21:41;19.30;98.30
13892;DHT22;7016;48.172;8.058;2022-09-09T11:24:17;19.30;98.30
13892;DHT22;7016;48.172;8.058;2022-09-09T11:26:52;19.40;97.90
13892;DHT22;7016;48.172;8.058;2022-09-09T11:40:24;19.60;96.20
13892;DHT22;7016;48.172;8.058;2022-09-09T11:43:05;19.70;95.90
13892;DHT22;7016;48.172;8.058;2022-09-09T11:45:35;19.60;91.40
13892;DHT22;7016;48.172;8.058;2022-09-09T11:48:03;19.50;92.70
13892;DHT22;7016;48.172;8.058;2022-09-09T11:50:36;19.30;92.90
13892;DHT22;7016;48.172;8.058;2022-09-09T11:55:42;19.10;91.60
13892;DHT22;7016;48.172;8.058;2022-09-09T12:00:44;19.30;92.00
13892;DHT22;7016;48.172;8.058;2022-09-09T12:03:37;19.70;91.80
13892;DHT22;7016;48.172;8.058;2022-09-09T12:06:32;19.70;92.10
13892;DHT22;7016;48.172;8.058;2022-09-09T12:11:43;19.90;92.80
13892;DHT22;7016;48.172;8.058;2022-09-09T12:14:23;19.90;92.50
13892;DHT22;7016;48.172;8.058;2022-09-09T12:17:19;19.90;92.40
13892;DHT22;7016;48.172;8.058;2022-09-09T12:19:45;20.10;92.40
13892;DHT22;7016;48.172;8.058;2022-09-09T12:27:59;20.30;92.70
13892;DHT22;7016;48.172;8.058;2022-09-09T12:31:08;20.40;92.60
13892;DHT22;7016;48.172;8.058;2022-09-09T12:33:34;20.40;91.70
13892;DHT22;7016;48.172;8.058;2022-09-09T12:36:00;20.80;91.40
13892;DHT22;7016;48.172;8.058;2022-09-09T12:38:39;20.30;91.60
13892;DHT22;7016;48.172;8.058;2022-09-09T12:41:05;20.30;90.60
13892;DHT22;7016;48.172;8.058;2022-09-09T12:43:31;20.20;89.00
13892;DHT22;7016;48.172;8.058;2022-09-09T12:46:08;20.20;90.40
13892;DHT22;7016;48.172;8.058;2022-09-09T12:48:38;20.30;89.40
13892;DHT22;7016;48.172;8.058;2022-09-09T12:51:16;20.30;90.20
13892;DHT22;7016;48.172;8.058;2022-09-09T12:53:43;20.60;90.20
13892;DHT22;7016;48.172;8.058;2022-09-09T12:56:19;20.60;90.30
13892;DHT22;7016;48.172;8.058;2022-09-09T12:58:49;20.70;89.00
13892;DHT22;7016;48.172;8.058;2022-09-09T13:01:25;20.50;90.00
13892;DHT22;7016;48.172;8.058;2022-09-09T13:03:51;20.50;89.20
13892;DHT22;7016;48.172;8.058;2022-09-09T13:06:29;20.50;89.50
13892;DHT22;7016;48.172;8.058;2022-09-09T13:09:00;20.50;88.80
13892;DHT22;7016;48.172;8.058;2022-09-09T13:13:56;20.70;89.50
13892;DHT22;7016;48.172;8.058;2022-09-09T13:16:30;20.70;89.20
13892;DHT22;7016;48.172;8.058;2022-09-09T13:19:07;20.60;89.30
13892;DHT22;7016;48.172;8.058;2022-09-09T13:21:42;20.50;89.20
13892;DHT22;7016;48.172;8.058;2022-09-09T13:27:18;20.40;86.10
13892;DHT22;7016;48.172;8.058;2022-09-09T13:29:53;20.10;85.50
13892;DHT22;7016;48.172;8.058;2022-09-09T13:32:24;19.90;85.80
13892;DHT22;7016;48.172;8.058;2022-09-09T13:34:57;20.10;86.30
13892;DHT22;7016;48.172;8.058;2022-09-09T13:37:24;20.20;86.80
13892;DHT22;7016;48.172;8.058;2022-09-09T13:39:53;20.30;86.40
13892;DHT22;7016;48.172;8.058;2022-09-09T13:42:27;20.40;87.50
13892;DHT22;7016;48.172;8.058;2022-09-09T13:44:55;20.50;89.10
13892;DHT22;7016;48.172;8.058;2022-09-09T13:47:33;20.50;88.40
13892;DHT22;7016;48.172;8.058;2022-09-09T13:50:25;20.30;88.90
13892;DHT22;7016;48.172;8.058;2022-09-09T13:52:54;20.20;90.10
13892;DHT22;7016;48.172;8.058;2022-09-09T13:55:21;20.10;91.40
13892;DHT22;7016;48.172;8.058;2022-09-09T13:58:06;19.90;93.80
13892;DHT22;7016;48.172;8.058;2022-09-09T14:00:34;19.80;94.40
13892;DHT22;7016;48.172;8.058;2022-09-09T14:02:59;19.50;94.80
13892;DHT22;7016;48.172;8.058;2022-09-09T14:05:31;19.40;93.70
13892;DHT22;7016;48.172;8.058;2022-09-09T14:07:57;19.20;93.80
13892;DHT22;7016;48.172;8.058;2022-09-09T14:10:23;19.10;94.30
13892;DHT22;7016;48.172;8.058;2022-09-09T14:12:49;19.10;94.20
13892;DHT22;7016;48.172;8.058;2022-09-09T14:15:15;19.00;94.00
13892;DHT22;7016;48.172;8.058;2022-09-09T14:17:42;19.10;94.00
13892;DHT22;7016;48.172;8.058;2022-09-09T14:20:09;19.30;96.00
13892;DHT22;7016;48.172;8.058;2022-09-09T14:22:37;19.40;95.60
13892;DHT22;7016;48.172;8.058;2022-09-09T14:25:05;19.30;94.50
13892;DHT22;7016;48.172;8.058;2022-09-09T14:27:31;19.40;94.80
13892;DHT22;7016;48.172;8.058;2022-09-09T14:29:58;19.40;93.80
13892;DHT22;7016;48.172;8.058;2022-09-09T14:32:25;19.30;93.70
13892;DHT22;7016;48.172;8.058;2022-09-09T14:34:52;19.00;93.90
13892;DHT22;7016;48.172;8.058;2022-09-09T14:37:18;19.00;93.90
13892;DHT22;7016;48.172;8.058;2022-09-09T14:39:44;19.00;94.10
13892;DHT22;7016;48.172;8.058;2022-09-09T14:42:10;19.00;94.10
13892;DHT22;7016;48.172;8.058;2022-09-09T14:44:37;19.00;93.50
13892;DHT22;7016;48.172;8.058;2022-09-09T14:47:07;19.10;93.90
13892;DHT22;7016;48.172;8.058;2022-09-09T14:49:34;19.10;94.50
13892;DHT22;7016;48.172;8.058;2022-09-09T14:52:00;19.20;94.00
13892;DHT22;7016;48.172;8.058;2022-09-09T14:54:26;19.20;93.60
13892;DHT22;7016;48.172;8.058;2022-09-09T14:56:52;19.20;94.10
13892;DHT22;7016;48.172;8.058;2022-09-09T14:59:17;19.20;93.80
13892;DHT22;7016;48.172;8.058;2022-09-09T15:01:43;19.10;94.20
13892;DHT22;7016;48.172;8.058;2022-09-09T15:04:12;19.20;93.80
13892;DHT22;7016;48.172;8.058;2022-09-09T15:06:39;19.20;94.10
13892;DHT22;7016;48.172;8.058;2022-09-09T15:09:08;19.30;94.10
13892;DHT22;7016;48.172;8.058;2022-09-09T15:11:36;19.30;93.70
13892;DHT22;7016;48.172;8.058;2022-09-09T15:14:06;19.50;93.20
13892;DHT22;7016;48.172;8.058;2022-09-09T15:16:32;19.60;93.30
13892;DHT22;7016;48.172;8.058;2022-09-09T15:19:00;19.60;93.10
13892;DHT22;7016;48.172;8.058;2022-09-09T15:21:31;19.50;92.90
13892;DHT22;7016;48.172;8.058;2022-09-09T15:23:57;19.60;92.90
13892;DHT22;7016;48.172;8.058;2022-09-09T15:26:24;19.60;93.40
13892;DHT22;7016;48.172;8.058;2022-09-09T15:28:50;19.70;93.70
13892;DHT22;7016;48.172;8.058;2022-09-09T15:31:21;19.70;92.80
13892;DHT22;7016;48.172;8.058;2022-09-09T15:33:55;19.50;92.00
13892;DHT22;7016;48.172;8.058;2022-09-09T15:36:32;19.50;92.50
13892;DHT22;7016;48.172;8.058;2022-09-09T15:39:03;19.50;93.50
13892;DHT22;7016;48.172;8.058;2022-09-09T15:41:30;19.50;93.30
13892;DHT22;7016;48.172;8.058;2022-09-09T15:43:57;19.50;93.10
13892;DHT22;7016;48.172;8.058;2022-09-09T15:49:12;19.60;93.40
13892;DHT22;7016;48.172;8.058;2022-09-09T15:51:43;19.60;93.10
13892;DHT22;7016;48.172;8.058;2022-09-09T15:54:19;19.60;92.80
13892;DHT22;7016;48.172;8.058;2022-09-09T15:57:07;19.60;93.40
13892;DHT22;7016;48.172;8.058;2022-09-09T15:59:46;19.60;93.00
13892;DHT22;7016;48.172;8.058;2022-09-09T16:02:11;19.60;92.40
13892;DHT22;7016;48.172;8.058;2022-09-09T16:04:37;19.60;92.10
13892;DHT22;7016;48.172;8.058;2022-09-09T16:07:04;19.50;91.90
13892;DHT22;7016;48.172;8.058;2022-09-09T16:09:31;19.50;92.40
13892;DHT22;7016;48.172;8.058;2022-09-09T16:11:59;19.50;92.20
13892;DHT22;7016;48.172;8.058;2022-09-09T16:14:32;19.60;91.80
13892;DHT22;7016;48.172;8.058;2022-09-09T16:17:04;19.50;91.90
13892;DHT22;7016;48.172;8.058;2022-09-09T16:19:31;19.60;92.20
13892;DHT22;7016;48.172;8.058;2022-09-09T16:21:57;19.60;92.40
13892;DHT22;7016;48.172;8.058;2022-09-09T16:24:23;19.70;92.80
13892;DHT22;7016;48.172;8.058;2022-09-09T16:26:51;19.70;92.60
13892;DHT22;7016;48.172;8.058;2022-09-09T16:29:19;19.70;92.80
13892;DHT22;7016;48.172;8.058;2022-09-09T16:31:45;19.60;92.50
13892;DHT22;7016;48.172;8.058;2022-09-09T16:34:12;19.60;92.20
13892;DHT22;7016;48.172;8.058;2022-09-09T16:36:39;19.60;92.30
13892;DHT22;7016;48.172;8.058;2022-09-09T16:39:10;19.50;92.50
13892;DHT22;7016;48.172;8.058;2022-09-09T16:41:38;19.20;92.90
13892;DHT22;7016;48.172;8.058;2022-09-09T16:44:08;18.90;94.70
13892;DHT22;7016;48.172;8.058;2022-09-09T16:46:39;18.80;95.80
13892;DHT22;7016;48.172;8.058;2022-09-09T16:49:08;18.40;95.50
13892;DHT22;7016;48.172;8.058;2022-09-09T16:51:39;18.30;96.70
13892;DHT22;7016;48.172;8.058;2022-09-09T16:54:06;18.10;96.90
13892;DHT22;7016;48.172;8.058;2022-09-09T16:56:34;18.10;97.40
13892;DHT22;7016;48.172;8.058;2022-09-09T16:59:05;18.00;98.60
13892;DHT22;7016;48.172;8.058;2022-09-09T17:01:35;17.90;99.00
13892;DHT22;7016;48.172;8.058;2022-09-09T17:04:05;18.00;99.30
13892;DHT22;7016;48.172;8.058;2022-09-09T17:06:32;18.00;99.30
13892;DHT22;7016;48.172;8.058;2022-09-09T17:09:06;18.10;98.60
13892;DHT22;7016;48.172;8.058;2022-09-09T17:11:32;18.00;99.30
13892;DHT22;7016;48.172;8.058;2022-09-09T17:13:58;18.10;99.50
13892;DHT22;7016;48.172;8.058;2022-09-09T17:16:28;18.10;99.70
13892;DHT22;7016;48.172;8.058;2022-09-09T17:18:54;18.10;99.90
13892;DHT22;7016;48.172;8.058;2022-09-09T17:21:22;18.10;99.00
13892;DHT22;7016;48.172;8.058;2022-09-09T17:23:48;18.10;99.00
13892;DHT22;7016;48.172;8.058;2022-09-09T17:26:18;18.00;98.70
13892;DHT22;7016;48.172;8.058;2022-09-09T17:28:44;17.90;99.20
13892;DHT22;7016;48.172;8.058;2022-09-09T17:31:13;18.00;99.20
13892;DHT22;7016;48.172;8.058;2022-09-09T17:33:41;18.00;99.20
13892;DHT22;7016;48.172;8.058;2022-09-09T17:36:36;18.00;99.60
13892;DHT22;7016;48.172;8.058;2022-09-09T17:39:22;18.00;99.40
13892;DHT22;7016;48.172;8.058;2022-09-09T17:41:54;17.90;99.00
13892;DHT22;7016;48.172;8.058;2022-09-09T17:44:20;17.90;98.90
13892;DHT22;7016;48.172;8.058;2022-09-09T17:46:46;17.90;99.10
13892;DHT22;7016;48.172;8.058;2022-09-09T17:49:14;18.00;99.40
13892;DHT22;7016;48.172;8.058;2022-09-09T17:51:41;18.00;99.70
13892;DHT22;7016;48.172;8.058;2022-09-09T17:54:16;17.90;99.70
13892;DHT22;7016;48.172;8.058;2022-09-09T17:56:43;17.90;99.90
13892;DHT22;7016;48.172;8.058;2022-09-09T17:59:12;17.90;99.90
13892;DHT22;7016;48.172;8.058;2022-09-09T18:01:42;17.80;99.90
13892;DHT22;7016;48.172;8.058;2022-09-09T18:04:13;17.80;99.90
13892;DHT22;7016;48.172;8.058;2022-09-09T18:06:42;17.80;99.90
13892;DHT22;7016;48.172;8.058;2022-09-09T18:09:11;17.80;99.90
13892;DHT22;7016;48.172;8.058;2022-09-09T18:11:40;17.70;99.90
13892;DHT22;7016;48.172;8.058;2022-09-09T18:14:10;17.80;99.90
13892;DHT22;7016;48.172;8.058;2022-09-09T18:16:37;17.80;99.90
13892;DHT22;7016;48.172;8.058;2022-09-09T18:19:05;17.80;99.90
13892;DHT22;7016;48.172;8.058;2022-09-09T18:21:32;17.80;99.90
13892;DHT22;7016;48.172;8.058;2022-09-09T18:24:02;17.70;99.90
13892;DHT22;7016;48.172;8.058;2022-09-09T18:26:29;17.60;99.90
13892;DHT22;7016;48.172;8.058;2022-09-09T18:28:59;17.60;99.90
13892;DHT22;7016;48.172;8.058;2022-09-09T18:31:29;17.60;99.90